Time;durP1;ratioP1;P1;durP2;ratioP2;P2;SDS_P1;SDS_P2;PMS_P1;PMS_P2;Temp;Humidity;BMP_temperature;BMP_pressure;BME280_temperature;BME280_humidity;BME280_pressure;Samples;Min_cycle;Max_cycle;Signal;HPM_P1;HPM_P2
2022/10/03 00:02:26;;;;;;;8.73;4.23;;;;;;;;;;5076980;28;20188;-81
2022/10/03 00:06:13;;;;;;;6.90;4.33;;;;;;;;;;5065736;28;20183;-81
2022/10/03 00:09:29;;;;;;;7.07;4.90;;;;;;;;;;5065025;28;20175;-81
2022/10/03 00:13:02;;;;;;;8.30;5.00;;;;;;;;;;5066193;28;20207;-81
2022/10/03 00:16:15;;;;;;;5.60;4.50;;;;;;;;;;5077728;28;20626;-81
2022/10/03 00:19:27;;;;;;;5.47;4.73;;;;;;;;;;5065856;28;20619;-81
2022/10/03 00:22:45;;;;;;;7.83;5.33;;;;;;;;;;5065139;28;20227;-81
2022/10/03 00:25:52;;;;;;;7.47;5.53;;;;;;;;;;5065184;28;20180;-81
2022/10/03 00:29:54;;;;;;;9.47;5.40;;;;;;;;;;5065535;28;20183;-81
2022/10/03 00:33:36;;;;;;;7.50;5.50;;;;;;;;;;4974159;28;20737;-81
2022/10/03 00:36:49;;;;;;;9.87;6.23;;;;;;;;;;4998712;28;20203;-82
2022/10/03 00:40:03;;;;;;;7.80;6.30;;;;;;;;;;5077210;28;20183;-81
2022/10/03 00:43:07;;;;;;;6.93;5.87;;;;;;;;;;5064710;28;20223;-81
2022/10/03 00:46:48;;;;;;;7.13;5.87;;;;;;;;;;5065121;28;20176;-81
2022/10/03 00:50:14;;;;;;;8.07;5.83;;;;;;;;;;5077288;28;20187;-81
2022/10/03 00:53:33;;;;;;;7.73;5.97;;;;;;;;;;5076437;28;20547;-81
2022/10/03 00:56:55;;;;;;;7.73;5.33;;;;;;;;;;5064900;28;20207;-81
2022/10/03 01:00:33;;;;;;;7.93;5.77;;;;;;;;;;5076529;28;20183;-81
2022/10/03 01:03:48;;;;;;;12.10;5.93;;;;;;;;;;5054326;28;20231;-81
2022/10/03 01:07:11;;;;;;;8.73;6.23;;;;;;;;;;5065194;28;20180;-81
2022/10/03 01:10:21;;;;;;;10.83;6.50;;;;;;;;;;5053489;28;20639;-81
2022/10/03 01:13:31;;;;;;;9.30;5.77;;;;;;;;;;5064378;28;20726;-81
2022/10/03 01:16:45;;;;;;;9.97;6.60;;;;;;;;;;5068789;28;20176;-81
2022/10/03 01:20:02;;;;;;;9.83;6.67;;;;;;;;;;5081364;28;20180;-81
2022/10/03 01:23:28;;;;;;;8.73;6.80;;;;;;;;;;5068530;28;20227;-81
2022/10/03 01:26:32;;;;;;;9.80;6.87;;;;;;;;;;5091778;28;20657;-81
2022/10/03 01:33:29;;;;;;;14.97;7.27;;;;;;;;;;5087948;28;20704;-80
2022/10/03 01:37:06;;;;;;;9.87;6.53;;;;;;;;;;5088258;28;20195;-81
2022/10/03 01:40:32;;;;;;;9.83;6.43;;;;;;;;;;5088292;28;20175;-80
2022/10/03 01:43:50;;;;;;;8.30;6.67;;;;;;;;;;5099324;28;20256;-81
2022/10/03 01:47:23;;;;;;;11.90;6.73;;;;;;;;;;5076085;28;20174;-81
2022/10/03 01:50:37;;;;;;;13.93;6.90;;;;;;;;;;5088301;28;20617;-80
2022/10/03 01:53:55;;;;;;;9.50;6.40;;;;;;;;;;5102356;28;20215;-81
2022/10/03 01:57:09;;;;;;;9.73;6.70;;;;;;;;;;5089995;28;20202;-81
2022/10/03 02:00:17;;;;;;;10.97;7.03;;;;;;;;;;5090496;28;20178;-81
2022/10/03 02:03:30;;;;;;;8.60;6.90;;;;;;;;;;5076105;28;20218;-81
2022/10/03 02:06:39;;;;;;;13.73;6.67;;;;;;;;;;5087672;28;20195;-81
2022/10/03 02:09:58;;;;;;;13.27;7.33;;;;;;;;;;5087069;28;20186;-81
2022/10/03 02:13:27;;;;;;;11.37;7.23;;;;;;;;;;5075531;28;20215;-81
2022/10/03 02:16:52;;;;;;;11.03;6.73;;;;;;;;;;5087496;28;20187;-81
2022/10/03 02:20:12;;;;;;;14.67;8.37;;;;;;;;;;5087434;28;20186;-81
2022/10/03 02:23:31;;;;;;;11.97;7.50;;;;;;;;;;5087401;28;20227;-81
2022/10/03 02:27:06;;;;;;;10.60;7.17;;;;;;;;;;5098136;28;20187;-81
2022/10/03 02:30:25;;;;;;;12.73;8.17;;;;;;;;;;5075642;28;20653;-81
2022/10/03 02:33:57;;;;;;;16.37;8.07;;;;;;;;;;5087405;28;20213;-81
2022/10/03 02:37:32;;;;;;;12.40;7.90;;;;;;;;;;5098677;28;20649;-81
2022/10/03 02:40:55;;;;;;;14.23;8.70;;;;;;;;;;5098552;28;20175;-81
2022/10/03 02:44:06;;;;;;;12.67;7.50;;;;;;;;;;5074910;28;20222;-81
2022/10/03 02:47:47;;;;;;;12.07;7.97;;;;;;;;;;5097748;28;20175;-81
2022/10/03 02:51:02;;;;;;;12.73;8.10;;;;;;;;;;5087006;28;20186;-80
2022/10/03 02:54:22;;;;;;;11.50;7.73;;;;;;;;;;5075147;28;20207;-82
2022/10/03 02:57:45;;;;;;;13.87;8.00;;;;;;;;;;5086694;28;20213;-81
2022/10/03 03:01:02;;;;;;;14.20;8.23;;;;;;;;;;5086058;28;20186;-81
2022/10/03 03:04:36;;;;;;;12.93;8.77;;;;;;;;;;5074252;28;20231;-81
2022/10/03 03:08:12;;;;;;;15.37;8.20;;;;;;;;;;5075238;28;20181;-81
2022/10/03 03:11:41;;;;;;;15.27;9.00;;;;;;;;;;5087069;28;20190;-80
2022/10/03 03:14:49;;;;;;;12.90;8.20;;;;;;;;;;5098539;28;20182;-81
2022/10/03 03:18:08;;;;;;;13.87;8.40;;;;;;;;;;5097924;28;20190;-81
2022/10/03 03:21:42;;;;;;;12.37;8.67;;;;;;;;;;5098825;28;20183;-81
2022/10/03 03:25:16;;;;;;;12.30;8.27;;;;;;;;;;5086369;28;20217;-81
2022/10/03 03:28:31;;;;;;;13.20;8.43;;;;;;;;;;5085733;28;20190;-81
2022/10/03 03:31:54;;;;;;;19.13;8.70;;;;;;;;;;5074209;28;20190;-81
2022/10/03 03:35:23;;;;;;;17.30;8.20;;;;;;;;;;5097235;28;20182;-81
2022/10/03 03:38:57;;;;;;;10.53;8.37;;;;;;;;;;5097036;28;20185;-81
2022/10/03 03:42:17;;;;;;;12.90;8.77;;;;;;;;;;5109727;28;20175;-81
2022/10/03 03:45:28;;;;;;;11.17;8.47;;;;;;;;;;5073959;28;20178;-81
2022/10/03 03:49:11;;;;;;;12.70;8.20;;;;;;;;;;5073485;28;20214;-81
2022/10/03 03:52:24;;;;;;;16.50;8.10;;;;;;;;;;5084449;28;20218;-81
2022/10/03 03:55:39;;;;;;;11.33;8.07;;;;;;;;;;5108111;28;20207;-81
2022/10/03 03:58:50;;;;;;;13.87;8.73;;;;;;;;;;5097150;28;20190;-81
2022/10/03 04:02:11;;;;;;;17.13;8.97;;;;;;;;;;5098058;28;20175;-80
2022/10/03 04:05:50;;;;;;;11.93;8.53;;;;;;;;;;5073635;28;20214;-81
2022/10/03 04:09:24;;;;;;;15.43;8.27;;;;;;;;;;5073201;28;20197;-82
2022/10/03 04:13:04;;;;;;;12.67;8.20;;;;;;;;;;5084777;28;20217;-81
2022/10/03 04:20:10;;;;;;;15.23;9.63;;;;;;;;;;5084878;28;20187;-81
2022/10/03 04:23:51;;;;;;;14.40;9.23;;;;;;;;;;5072838;28;20217;-81
2022/10/03 04:27:07;;;;;;;23.37;9.77;;;;;;;;;;5096522;28;20189;-81
2022/10/03 04:30:17;;;;;;;13.80;8.77;;;;;;;;;;5095939;28;20527;-80
2022/10/03 04:33:57;;;;;;;16.40;9.50;;;;;;;;;;5095656;28;20213;-81
2022/10/03 04:37:21;;;;;;;13.63;10.20;;;;;;;;;;5026280;28;20181;-81
2022/10/03 04:40:42;;;;;;;15.60;9.60;;;;;;;;;;5096535;28;20538;-81
2022/10/03 04:44:09;;;;;;;12.97;9.87;;;;;;;;;;5072939;28;20737;-81
2022/10/03 04:47:24;;;;;;;13.60;9.37;;;;;;;;;;5096492;28;20189;-81
2022/10/03 04:50:40;;;;;;;16.63;9.77;;;;;;;;;;5087841;28;20201;-81
2022/10/03 04:53:56;;;;;;;10.10;8.10;;;;;;;;;;5088500;28;20713;-80
2022/10/03 04:57:09;;;;;;;12.93;9.47;;;;;;;;;;5093000;28;20677;-80
2022/10/03 05:00:40;;;;;;;17.77;9.13;;;;;;;;;;5068513;28;20175;-80
2022/10/03 05:03:59;;;;;;;19.20;9.10;;;;;;;;;;5067386;28;20234;-80
2022/10/03 05:07:17;;;;;;;16.17;9.47;;;;;;;;;;5079359;28;20532;-81
2022/10/03 05:10:27;;;;;;;14.57;9.80;;;;;;;;;;5067212;28;20580;-82
2022/10/03 05:13:55;;;;;;;12.23;9.13;;;;;;;;;;5079047;28;20221;-81
2022/10/03 05:17:09;;;;;;;10.67;8.57;;;;;;;;;;5067875;28;20290;-83
2022/10/03 05:20:51;;;;;;;15.60;9.43;;;;;;;;;;5067494;28;20172;-81
2022/10/03 05:24:08;;;;;;;16.17;9.33;;;;;;;;;;5079291;28;20227;-81
2022/10/03 05:27:50;;;;;;;12.93;8.67;;;;;;;;;;5079247;28;20191;-80
2022/10/03 05:31:23;;;;;;;12.27;8.97;;;;;;;;;;5078975;28;20191;-81
2022/10/03 05:34:35;;;;;;;13.20;9.53;;;;;;;;;;5096366;28;20198;-80
2022/10/03 05:38:00;;;;;;;15.47;8.80;;;;;;;;;;5099064;28;20190;-80
2022/10/03 05:41:31;;;;;;;12.13;8.53;;;;;;;;;;5076071;28;20554;-80
2022/10/03 05:44:58;;;;;;;16.10;9.43;;;;;;;;;;5075966;28;20219;-81
2022/10/03 05:48:11;;;;;;;15.23;9.40;;;;;;;;;;5086999;28;20194;-80
2022/10/03 05:51:40;;;;;;;13.03;8.60;;;;;;;;;;5098325;28;20175;-81
2022/10/03 05:55:02;;;;;;;14.77;9.43;;;;;;;;;;5098657;28;20186;-81
2022/10/03 05:58:43;;;;;;;18.53;9.43;;;;;;;;;;5087220;28;20207;-81
2022/10/03 06:02:20;;;;;;;19.80;12.53;;;;;;;;;;5073824;28;20178;-80
2022/10/03 06:05:56;;;;;;;26.27;14.90;;;;;;;;;;5085464;28;20209;-80
2022/10/03 06:09:35;;;;;;;21.23;11.33;;;;;;;;;;5074033;28;20190;-80
2022/10/03 06:13:19;;;;;;;19.43;10.33;;;;;;;;;;5098532;28;20217;-80
2022/10/03 06:16:23;;;;;;;21.57;10.37;;;;;;;;;;5086614;28;20182;-80
2022/10/03 06:19:56;;;;;;;14.57;9.27;;;;;;;;;;5097421;28;20194;-80
2022/10/03 06:23:10;;;;;;;19.53;10.10;;;;;;;;;;5085223;28;20218;-78
2022/10/03 06:26:37;;;;;;;17.53;11.60;;;;;;;;;;5085630;28;20182;-78
2022/10/03 06:30:04;;;;;;;14.13;12.20;;;;;;;;;;5073778;28;20193;-78
2022/10/03 06:33:51;;;;;;;17.13;12.53;;;;;;;;;;5096839;28;20222;-78
2022/10/03 06:37:16;;;;;;;19.00;12.33;;;;;;;;;;5085680;28;20182;-79
2022/10/03 06:40:59;;;;;;;15.73;9.83;;;;;;;;;;5085622;28;20190;-79
2022/10/03 06:44:26;;;;;;;19.37;11.00;;;;;;;;;;5085183;28;20230;-79
2022/10/03 06:47:50;;;;;;;15.20;8.60;;;;;;;;;;5096115;28;20182;-79
2022/10/03 06:51:27;;;;;;;13.73;9.47;;;;;;;;;;5096684;28;20179;-79
2022/10/03 06:54:52;;;;;;;17.67;13.87;;;;;;;;;;5097188;28;20528;-79
2022/10/03 06:58:12;;;;;;;20.80;12.00;;;;;;;;;;5073333;28;20672;-79
2022/10/03 07:01:38;;;;;;;18.53;10.90;;;;;;;;;;5084981;28;20189;-79
2022/10/03 07:05:07;;;;;;;14.77;10.40;;;;;;;;;;5084942;28;20222;-79
2022/10/03 07:08:36;;;;;;;29.67;15.03;;;;;;;;;;5097144;28;20186;-79
2022/10/03 07:12:18;;;;;;;17.63;12.57;;;;;;;;;;5095869;28;20186;-79
2022/10/03 07:15:48;;;;;;;16.87;10.07;;;;;;;;;;5096015;28;20178;-79
2022/10/03 07:19:16;;;;;;;17.50;10.83;;;;;;;;;;5085182;28;20202;-79
2022/10/03 07:22:32;;;;;;;14.77;10.57;;;;;;;;;;5097087;28;20255;-80
2022/10/03 07:25:58;;;;;;;17.57;10.37;;;;;;;;;;5073771;28;20218;-80
2022/10/03 07:29:21;;;;;;;17.90;11.83;;;;;;;;;;5096414;28;20190;-80
2022/10/03 07:32:50;;;;;;;16.40;11.30;;;;;;;;;;5084811;28;20229;-79
2022/10/03 07:40:07;;;;;;;20.17;13.73;;;;;;;;;;5080657;28;20198;-79
2022/10/03 07:43:37;;;;;;;22.90;13.47;;;;;;;;;;5085350;28;20221;-79
2022/10/03 07:47:19;;;;;;;19.37;11.97;;;;;;;;;;5081505;28;20194;-80
2022/10/03 07:51:04;;;;;;;17.37;10.80;;;;;;;;;;5070179;28;20190;-80
2022/10/03 07:54:31;;;;;;;16.13;10.67;;;;;;;;;;5094526;28;20705;-80
2022/10/03 07:57:45;;;;;;;14.73;9.90;;;;;;;;;;5096403;28;20194;-80
2022/10/03 08:01:27;;;;;;;16.83;10.03;;;;;;;;;;5079155;28;20677;-79
2022/10/03 08:04:46;;;;;;;13.83;9.37;;;;;;;;;;5082038;28;20574;-79
2022/10/03 08:08:15;;;;;;;15.00;8.40;;;;;;;;;;5083500;28;20554;-80
2022/10/03 08:11:40;;;;;;;12.33;7.40;;;;;;;;;;5067128;28;20552;-80
2022/10/03 08:15:20;;;;;;;9.97;6.67;;;;;;;;;;5065911;28;20183;-80
2022/10/03 08:18:27;;;;;;;15.03;8.40;;;;;;;;;;5088479;28;20183;-80
2022/10/03 08:21:49;;;;;;;13.43;6.57;;;;;;;;;;5081296;28;20551;-80
2022/10/03 08:25:26;;;;;;;10.93;6.93;;;;;;;;;;5086297;28;20211;-80
2022/10/03 08:29:01;;;;;;;13.77;6.27;;;;;;;;;;5078566;28;20175;-80
2022/10/03 08:32:41;;;;;;;9.50;5.93;;;;;;;;;;5064716;28;20183;-80
2022/10/03 08:36:15;;;;;;;12.77;5.90;;;;;;;;;;5054430;28;20524;-80
2022/10/03 08:39:27;;;;;;;11.73;5.83;;;;;;;;;;5076375;28;20186;-80
2022/10/03 08:42:46;;;;;;;10.30;5.23;;;;;;;;;;5064807;28;20219;-80
2022/10/03 08:46:14;;;;;;;12.17;4.93;;;;;;;;;;5064727;28;20222;-80
2022/10/03 08:49:50;;;;;;;9.70;4.57;;;;;;;;;;5065298;28;20191;-80
2022/10/03 08:53:15;;;;;;;10.50;5.17;;;;;;;;;;5053593;28;20215;-79
2022/10/03 08:56:44;;;;;;;12.07;4.83;;;;;;;;;;5064922;28;20574;-80
2022/10/03 09:00:04;;;;;;;11.33;5.40;;;;;;;;;;5078028;28;20671;-79
2022/10/03 09:03:52;;;;;;;8.47;4.33;;;;;;;;;;5065330;28;20215;-80
2022/10/03 09:06:56;;;;;;;12.10;5.67;;;;;;;;;;5064439;28;20188;-80
2022/10/03 09:10:22;;;;;;;11.43;5.83;;;;;;;;;;5052985;28;20194;-81
2022/10/03 09:13:54;;;;;;;15.17;6.40;;;;;;;;;;5087567;28;20218;-80
2022/10/03 09:17:37;;;;;;;10.33;5.80;;;;;;;;;;5064773;28;20580;-79
2022/10/03 09:20:59;;;;;;;8.80;5.03;;;;;;;;;;5049448;28;20208;-80
2022/10/03 09:24:31;;;;;;;9.50;4.63;;;;;;;;;;5087267;28;20215;-80
2022/10/03 09:27:54;;;;;;;10.67;5.00;;;;;;;;;;5075512;28;20188;-79
2022/10/03 09:31:14;;;;;;;9.23;5.07;;;;;;;;;;5052715;28;20377;-80
2022/10/03 09:34:45;;;;;;;9.93;5.60;;;;;;;;;;5064154;28;20191;-79
2022/10/03 09:38:11;;;;;;;11.80;5.40;;;;;;;;;;5056378;28;20183;-79
2022/10/03 09:41:31;;;;;;;11.27;5.17;;;;;;;;;;5062514;28;20186;-80
2022/10/03 09:44:41;;;;;;;10.20;4.33;;;;;;;;;;5105101;28;20186;-80
2022/10/03 09:48:31;;;;;;;6.93;3.93;;;;;;;;;;5096687;28;20195;-80
2022/10/03 09:52:03;;;;;;;7.13;3.60;;;;;;;;;;5033516;28;20188;-80
2022/10/03 09:55:22;;;;;;;7.67;2.80;;;;;;;;;;5048758;28;20266;-81
2022/10/03 09:58:47;;;;;;;9.10;2.50;;;;;;;;;;5102001;28;20187;-80
2022/10/03 10:02:29;;;;;;;6.70;2.77;;;;;;;;;;5099129;28;20519;-80
2022/10/03 10:05:39;;;;;;;5.33;2.47;;;;;;;;;;5081015;28;20543;-80
2022/10/03 10:09:18;;;;;;;6.17;2.30;;;;;;;;;;5071213;28;20183;-79
2022/10/03 10:12:32;;;;;;;11.93;3.10;;;;;;;;;;5103520;28;20203;-81
2022/10/03 10:16:27;;;;;;;7.50;3.37;;;;;;;;;;5096532;28;20190;-80
2022/10/03 10:19:54;;;;;;;12.87;4.97;;;;;;;;;;5079724;28;20199;-80
2022/10/03 10:23:38;;;;;;;14.00;4.20;;;;;;;;;;5107475;28;20216;-80
2022/10/03 10:26:50;;;;;;;5.40;2.43;;;;;;;;;;5076343;28;20210;-80
2022/10/03 10:30:19;;;;;;;9.07;2.33;;;;;;;;;;5101264;28;20226;-81
2022/10/03 10:34:16;;;;;;;5.00;1.67;;;;;;;;;;5073208;28;20214;-82
2022/10/03 10:37:41;;;;;;;8.87;2.20;;;;;;;;;;5093329;28;20530;-80
2022/10/03 10:41:29;;;;;;;10.67;2.60;;;;;;;;;;5082411;28;20195;-81
2022/10/03 10:45:04;;;;;;;5.70;2.00;;;;;;;;;;5103952;28;20207;-81
2022/10/03 10:48:37;;;;;;;5.60;1.90;;;;;;;;;;5100833;28;20175;-81
2022/10/03 10:52:02;;;;;;;8.13;2.43;;;;;;;;;;5102982;28;20175;-80
2022/10/03 10:55:10;;;;;;;7.33;2.10;;;;;;;;;;5090597;28;20179;-80
2022/10/03 10:58:32;;;;;;;5.63;2.97;;;;;;;;;;5091328;28;20669;-80
2022/10/03 11:01:55;;;;;;;4.93;1.90;;;;;;;;;;5092303;28;20186;-80
2022/10/03 11:05:18;;;;;;;8.60;1.97;;;;;;;;;;5103231;28;20199;-80
2022/10/03 11:09:00;;;;;;;6.53;2.00;;;;;;;;;;5103194;28;20190;-80
2022/10/03 11:12:36;;;;;;;6.07;2.10;;;;;;;;;;5058582;28;20243;-80
2022/10/03 11:15:53;;;;;;;6.63;2.40;;;;;;;;;;5061304;28;20176;-80
2022/10/03 11:19:19;;;;;;;12.03;2.57;;;;;;;;;;5072351;28;20176;-81
2022/10/03 11:22:39;;;;;;;10.73;2.43;;;;;;;;;;5084516;28;20211;-80
2022/10/03 11:25:52;;;;;;;5.67;1.87;;;;;;;;;;5081931;28;20218;-80
2022/10/03 11:29:30;;;;;;;7.47;2.00;;;;;;;;;;5099455;28;20183;-80
2022/10/03 11:33:00;;;;;;;6.00;1.73;;;;;;;;;;5097457;28;20555;-79
2022/10/03 11:36:40;;;;;;;11.77;5.10;;;;;;;;;;5096912;28;20187;-80
2022/10/03 11:39:47;;;;;;;7.23;1.87;;;;;;;;;;5069389;28;20203;-79
2022/10/03 11:43:13;;;;;;;5.43;1.80;;;;;;;;;;5077477;28;20211;-79
2022/10/03 11:46:43;;;;;;;3.30;1.53;;;;;;;;;;5079629;28;20207;-80
2022/10/03 11:50:19;;;;;;;7.43;2.00;;;;;;;;;;5083400;28;20183;-79
2022/10/03 11:53:32;;;;;;;7.03;1.83;;;;;;;;;;5067175;28;20303;-81
2022/10/03 11:56:44;;;;;;;4.17;1.50;;;;;;;;;;5079117;28;20203;-81
2022/10/03 12:00:02;;;;;;;6.63;1.57;;;;;;;;;;5075536;28;20199;-81
2022/10/03 12:03:28;;;;;;;5.23;1.53;;;;;;;;;;5091590;28;20207;-81
2022/10/03 12:10:31;;;;;;;7.00;2.00;;;;;;;;;;5098367;28;20183;-81
2022/10/03 12:14:03;;;;;;;4.80;1.70;;;;;;;;;;5098168;28;20559;-82
2022/10/03 12:17:14;;;;;;;8.97;1.87;;;;;;;;;;5074877;28;20174;-82
2022/10/03 12:20:25;;;;;;;6.23;1.97;;;;;;;;;;5098358;28;20179;-82
2022/10/03 12:23:57;;;;;;;6.60;1.97;;;;;;;;;;5096548;28;20211;-81
2022/10/03 12:27:34;;;;;;;6.13;1.70;;;;;;;;;;5085650;28;20579;-82
2022/10/03 12:31:34;;;;;;;9.30;2.90;;;;;;;;;;5068625;28;20198;-81
2022/10/03 12:34:59;;;;;;;5.33;1.53;;;;;;;;;;5047772;28;20206;-81
2022/10/03 12:38:25;;;;;;;4.90;1.40;;;;;;;;;;5074537;28;20179;-82
2022/10/03 12:41:51;;;;;;;7.27;1.83;;;;;;;;;;5085584;28;20179;-82
2022/10/03 12:45:22;;;;;;;4.93;1.47;;;;;;;;;;5074219;28;20187;-82
2022/10/03 12:48:54;;;;;;;5.23;1.93;;;;;;;;;;5074128;28;20179;-82
2022/10/03 12:52:01;;;;;;;2.43;1.40;;;;;;;;;;5085033;28;20178;-82
2022/10/03 12:55:32;;;;;;;6.33;1.57;;;;;;;;;;5073926;28;20171;-82
2022/10/03 12:58:51;;;;;;;6.20;1.40;;;;;;;;;;5097066;28;20175;-82
2022/10/03 13:02:08;;;;;;;5.83;1.50;;;;;;;;;;5085115;28;20183;-82
2022/10/03 13:05:35;;;;;;;7.43;2.77;;;;;;;;;;5084697;28;20191;-82
2022/10/03 13:09:09;;;;;;;4.27;1.67;;;;;;;;;;5096877;28;20178;-83
2022/10/03 13:12:35;;;;;;;6.57;1.40;;;;;;;;;;5062774;28;20199;-81
2022/10/03 13:15:54;;;;;;;4.23;1.30;;;;;;;;;;5089140;28;20171;-81
2022/10/03 13:19:22;;;;;;;4.43;0.90;;;;;;;;;;5088933;28;20179;-82
2022/10/03 13:22:38;;;;;;;6.30;1.57;;;;;;;;;;5088886;28;20205;-81
2022/10/03 13:25:49;;;;;;;4.17;1.53;;;;;;;;;;5088079;28;20646;-81
2022/10/03 13:29:22;;;;;;;7.90;1.60;;;;;;;;;;5088400;28;20179;-82
2022/10/03 13:32:41;;;;;;;6.30;1.30;;;;;;;;;;5074956;28;20218;-82
2022/10/03 13:36:00;;;;;;;6.07;1.40;;;;;;;;;;5100076;28;20179;-82
2022/10/03 13:39:18;;;;;;;7.20;1.30;;;;;;;;;;5087980;28;20187;-82
2022/10/03 13:42:40;;;;;;;4.27;1.20;;;;;;;;;;5099931;28;20207;-82
2022/10/03 13:45:47;;;;;;;3.33;1.10;;;;;;;;;;5111827;28;20638;-81
2022/10/03 13:49:00;;;;;;;2.87;1.00;;;;;;;;;;5088450;28;20175;-82
2022/10/03 13:52:29;;;;;;;5.17;1.07;;;;;;;;;;5088822;28;20183;-82
2022/10/03 13:55:41;;;;;;;4.23;1.27;;;;;;;;;;5076873;28;20202;-82
2022/10/03 13:58:51;;;;;;;6.77;1.37;;;;;;;;;;5099970;28;20170;-82
2022/10/03 14:02:01;;;;;;;5.57;1.53;;;;;;;;;;5099509;28;20179;-82
2022/10/03 14:05:19;;;;;;;4.33;1.20;;;;;;;;;;5099508;28;20175;-82
2022/10/03 14:08:27;;;;;;;5.67;3.20;;;;;;;;;;5099715;28;20174;-82
2022/10/03 14:11:41;;;;;;;4.83;1.70;;;;;;;;;;5099733;28;20175;-82
2022/10/03 14:15:12;;;;;;;6.53;1.60;;;;;;;;;;5077018;28;20179;-81
2022/10/03 14:18:28;;;;;;;5.83;2.10;;;;;;;;;;5083371;28;20507;-82
2022/10/03 14:21:46;;;;;;;4.87;1.43;;;;;;;;;;5112125;28;20543;-81
2022/10/03 14:25:06;;;;;;;6.43;2.53;;;;;;;;;;5076374;28;20190;-82
2022/10/03 14:28:25;;;;;;;4.87;1.80;;;;;;;;;;5099776;28;20207;-82
2022/10/03 14:31:50;;;;;;;3.37;1.40;;;;;;;;;;5099413;28;20175;-81
2022/10/03 14:35:23;;;;;;;8.00;4.53;;;;;;;;;;5099821;28;20180;-81
2022/10/03 14:38:56;;;;;;;4.47;2.40;;;;;;;;;;5099374;28;20516;-81
2022/10/03 14:42:46;;;;;;;7.03;2.30;;;;;;;;;;5088803;28;20551;-80
2022/10/03 14:45:53;;;;;;;4.63;2.30;;;;;;;;;;5094960;28;20179;-83
2022/10/03 14:49:02;;;;;;;4.30;1.60;;;;;;;;;;5086228;28;20191;-82
2022/10/03 14:52:25;;;;;;;3.80;1.60;;;;;;;;;;5109394;28;20190;-82
2022/10/03 14:55:33;;;;;;;4.37;2.13;;;;;;;;;;5103318;28;20661;-83
2022/10/03 14:58:47;;;;;;;3.97;1.53;;;;;;;;;;5080622;28;20183;-82
2022/10/03 15:01:54;;;;;;;7.47;1.80;;;;;;;;;;5112943;28;20626;-82
2022/10/03 15:05:17;;;;;;;4.47;1.30;;;;;;;;;;5089818;28;20632;-81
2022/10/03 15:08:26;;;;;;;10.20;1.50;;;;;;;;;;5114427;28;20207;-82
2022/10/03 15:11:34;;;;;;;5.93;1.20;;;;;;;;;;5105401;28;20197;-82
2022/10/03 15:14:44;;;;;;;3.60;1.20;;;;;;;;;;5094575;28;20175;-81
2022/10/03 15:17:51;;;;;;;3.97;1.03;;;;;;;;;;5079057;28;20179;-82
2022/10/03 15:20:56;;;;;;;2.80;1.13;;;;;;;;;;5100965;28;20182;-81
2022/10/03 15:24:03;;;;;;;6.33;1.47;;;;;;;;;;5079948;28;20214;-82
2022/10/03 15:27:14;;;;;;;4.43;1.43;;;;;;;;;;5101491;28;20203;-82
2022/10/03 15:30:28;;;;;;;4.30;1.50;;;;;;;;;;5104238;28;20183;-80
2022/10/03 15:33:36;;;;;;;5.20;1.20;;;;;;;;;;5090169;28;20218;-80
2022/10/03 15:36:45;;;;;;;4.17;1.20;;;;;;;;;;5089062;28;20186;-80
2022/10/03 15:39:52;;;;;;;7.73;1.60;;;;;;;;;;5110393;28;20178;-82
2022/10/03 15:43:27;;;;;;;7.00;1.60;;;;;;;;;;5087939;28;20210;-82
2022/10/03 15:46:42;;;;;;;14.23;7.67;;;;;;;;;;5099168;28;20223;-82
2022/10/03 15:49:55;;;;;;;11.80;8.77;;;;;;;;;;5088248;28;20182;-82
2022/10/03 15:53:10;;;;;;;9.43;6.77;;;;;;;;;;5098632;28;20222;-82
2022/10/03 15:56:21;;;;;;;11.23;4.00;;;;;;;;;;5099118;28;20206;-81
2022/10/03 15:59:31;;;;;;;4.73;1.80;;;;;;;;;;5086180;28;20198;-80
2022/10/03 16:02:48;;;;;;;4.00;1.53;;;;;;;;;;5098138;28;20214;-80
2022/10/03 16:06:05;;;;;;;2.37;1.10;;;;;;;;;;5087170;28;20194;-80
2022/10/03 16:09:41;;;;;;;4.47;1.33;;;;;;;;;;5093486;28;20662;-79
2022/10/03 16:12:55;;;;;;;5.07;1.70;;;;;;;;;;5090989;28;20210;-81
2022/10/03 16:16:25;;;;;;;4.53;1.80;;;;;;;;;;5081130;28;20559;-80
2022/10/03 16:19:37;;;;;;;7.60;1.40;;;;;;;;;;5073467;28;20200;-82
2022/10/03 16:22:50;;;;;;;4.10;1.23;;;;;;;;;;5086027;28;20211;-82
2022/10/03 16:25:59;;;;;;;5.50;1.60;;;;;;;;;;5086282;28;20171;-82
2022/10/03 16:29:12;;;;;;;5.03;1.70;;;;;;;;;;5074735;28;20175;-80
2022/10/03 16:32:21;;;;;;;3.83;1.30;;;;;;;;;;5097547;28;20686;-81
2022/10/03 16:35:29;;;;;;;5.30;1.53;;;;;;;;;;5086850;28;20187;-82
2022/10/03 16:38:37;;;;;;;3.47;1.60;;;;;;;;;;5076024;28;20179;-82
2022/10/03 16:41:42;;;;;;;3.60;1.67;;;;;;;;;;5086370;28;20175;-82
2022/10/03 16:44:47;;;;;;;8.80;2.10;;;;;;;;;;5085415;28;20175;-82
2022/10/03 16:51:34;;;;;;;2.00;1.20;;;;;;;;;;5086843;28;20183;-82
2022/10/03 16:54:42;;;;;;;3.60;1.67;;;;;;;;;;5099041;28;20179;-79
2022/10/03 16:57:56;;;;;;;5.43;1.33;;;;;;;;;;5097443;27;20789;-81
2022/10/03 17:01:09;;;;;;;5.23;1.53;;;;;;;;;;5063469;28;20674;-83
2022/10/03 17:04:27;;;;;;;5.17;1.50;;;;;;;;;;5042454;28;20212;-82
2022/10/03 17:07:44;;;;;;;9.23;1.47;;;;;;;;;;5038689;28;20175;-83
2022/10/03 17:10:54;;;;;;;5.33;1.47;;;;;;;;;;5052509;28;20183;-83
2022/10/03 17:14:02;;;;;;;4.73;1.50;;;;;;;;;;5052553;28;20215;-82
2022/10/03 17:17:32;;;;;;;2.63;1.40;;;;;;;;;;5063380;28;20663;-82
2022/10/03 17:20:42;;;;;;;6.63;1.73;;;;;;;;;;5052016;28;20183;-82
2022/10/03 17:24:12;;;;;;;4.73;1.63;;;;;;;;;;5051763;28;20215;-82
2022/10/03 17:27:28;;;;;;;2.70;1.63;;;;;;;;;;5052297;28;20172;-81
2022/10/03 17:30:46;;;;;;;3.33;1.50;;;;;;;;;;5062841;28;20180;-82
2022/10/03 17:34:02;;;;;;;4.93;1.50;;;;;;;;;;5063093;28;20215;-82
2022/10/03 17:37:54;;;;;;;8.03;1.77;;;;;;;;;;5051984;28;20204;-82
2022/10/03 17:41:34;;;;;;;3.70;1.63;;;;;;;;;;4975187;28;20650;-82
2022/10/03 17:44:58;;;;;;;3.60;1.73;;;;;;;;;;5047422;28;20207;-83
2022/10/03 17:48:24;;;;;;;6.90;1.50;;;;;;;;;;5050379;28;20173;-81
2022/10/03 17:51:31;;;;;;;5.53;1.90;;;;;;;;;;5039685;28;20628;-82
2022/10/03 17:54:37;;;;;;;4.37;1.80;;;;;;;;;;5050776;28;20180;-81
2022/10/03 17:57:52;;;;;;;5.07;1.80;;;;;;;;;;5051760;28;20219;-82
2022/10/03 18:01:09;;;;;;;5.37;1.77;;;;;;;;;;5049365;28;20188;-80
2022/10/03 18:04:19;;;;;;;4.90;1.90;;;;;;;;;;5035910;28;20224;-78
2022/10/03 18:07:26;;;;;;;5.73;1.93;;;;;;;;;;5032227;28;20178;-81
2022/10/03 18:10:35;;;;;;;3.83;1.80;;;;;;;;;;5010110;28;20186;-79
2022/10/03 18:13:46;;;;;;;7.63;2.10;;;;;;;;;;5009571;28;20588;-79
2022/10/03 18:16:57;;;;;;;4.67;2.03;;;;;;;;;;5020411;28;20600;-79
2022/10/03 18:20:01;;;;;;;7.53;2.10;;;;;;;;;;5008742;28;20201;-79
2022/10/03 18:23:13;;;;;;;5.90;2.37;;;;;;;;;;5008801;28;20217;-81
2022/10/03 18:26:32;;;;;;;4.50;2.10;;;;;;;;;;5021164;28;20644;-80
2022/10/03 18:29:49;;;;;;;6.50;1.87;;;;;;;;;;5011025;28;20182;-81
2022/10/03 18:32:57;;;;;;;11.53;1.87;;;;;;;;;;5011023;28;20217;-79
2022/10/03 18:36:10;;;;;;;8.50;2.00;;;;;;;;;;5000176;28;20609;-80
2022/10/03 18:39:36;;;;;;;4.90;1.97;;;;;;;;;;5010295;28;20190;-80
2022/10/03 18:42:44;;;;;;;3.50;1.77;;;;;;;;;;5007935;28;20217;-80
2022/10/03 18:45:57;;;;;;;6.70;2.10;;;;;;;;;;5009240;28;20182;-80
2022/10/03 18:49:16;;;;;;;9.53;2.47;;;;;;;;;;5008482;28;20572;-80
2022/10/03 18:53:13;;;;;;;6.37;2.10;;;;;;;;;;4997720;28;20221;-80
2022/10/03 18:56:22;;;;;;;8.37;2.30;;;;;;;;;;5013922;28;20228;-82
2022/10/03 18:59:41;;;;;;;5.40;2.30;;;;;;;;;;4996379;28;20186;-81
2022/10/03 19:03:02;;;;;;;7.20;2.50;;;;;;;;;;5008737;28;20221;-82
2022/10/03 19:06:23;;;;;;;4.47;2.17;;;;;;;;;;5007949;28;20630;-81
2022/10/03 19:09:39;;;;;;;8.03;2.53;;;;;;;;;;4996142;28;20182;-81
2022/10/03 19:12:49;;;;;;;4.50;2.40;;;;;;;;;;4997431;28;20209;-80
2022/10/03 19:16:12;;;;;;;5.63;2.23;;;;;;;;;;5009180;28;20557;-80
2022/10/03 19:19:30;;;;;;;5.97;2.20;;;;;;;;;;4997027;28;20566;-80
2022/10/03 19:23:17;;;;;;;5.33;2.30;;;;;;;;;;5007018;28;20577;-79
2022/10/03 19:26:26;;;;;;;5.70;2.23;;;;;;;;;;4997406;28;20190;-81
2022/10/03 19:29:39;;;;;;;3.17;2.10;;;;;;;;;;5009138;28;20186;-80
2022/10/03 19:32:50;;;;;;;4.30;2.40;;;;;;;;;;4995930;28;20218;-80
2022/10/03 19:36:00;;;;;;;8.20;2.07;;;;;;;;;;4996944;28;20178;-81
2022/10/03 19:39:10;;;;;;;5.87;2.60;;;;;;;;;;4995257;28;20178;-81
2022/10/03 19:42:32;;;;;;;4.70;2.37;;;;;;;;;;4995773;28;20189;-81
2022/10/03 19:45:37;;;;;;;5.10;2.97;;;;;;;;;;5006436;28;20174;-81
2022/10/03 19:48:47;;;;;;;7.87;2.60;;;;;;;;;;4995001;28;20186;-81
2022/10/03 19:52:09;;;;;;;5.03;2.30;;;;;;;;;;5006097;28;20181;-81
2022/10/03 19:55:23;;;;;;;6.90;2.50;;;;;;;;;;4995717;28;20174;-80
2022/10/03 19:58:28;;;;;;;9.90;2.60;;;;;;;;;;5028406;28;20199;-81
2022/10/03 20:01:48;;;;;;;3.47;2.40;;;;;;;;;;5036600;28;20185;-83
2022/10/03 20:04:55;;;;;;;4.70;2.40;;;;;;;;;;5045617;28;20184;-80
2022/10/03 20:08:05;;;;;;;5.30;2.57;;;;;;;;;;5023352;28;20176;-81
2022/10/03 20:11:41;;;;;;;8.67;2.90;;;;;;;;;;5034874;28;20188;-80
2022/10/03 20:14:50;;;;;;;3.67;2.33;;;;;;;;;;5023261;28;20180;-81
2022/10/03 20:17:59;;;;;;;6.07;2.43;;;;;;;;;;5046773;28;20200;-79
2022/10/03 20:21:09;;;;;;;5.17;2.23;;;;;;;;;;5022818;28;20180;-79